Time;durP1;ratioP1;P1;durP2;ratioP2;P2;SDS_P1;SDS_P2;PMS_P1;PMS_P2;Temp;Humidity;BMP_temperature;BMP_pressure;BME280_temperature;BME280_humidity;BME280_pressure;Samples;Min_cycle;Max_cycle;Signal;HPM_P1;HPM_P2
2022/09/17 00:02:21;;;;;;;13.50;2.77;;;11.70;77.80;;;;;;5031075;28;20891;-73
2022/09/17 00:04:48;;;;;;;14.70;3.13;;;11.70;78.40;;;;;;5031323;28;20819;-73
2022/09/17 00:07:14;;;;;;;15.52;3.00;;;11.70;79.00;;;;;;5031352;28;20435;-72
2022/09/17 00:09:40;;;;;;;8.27;2.55;;;11.70;79.00;;;;;;5032786;28;20390;-72
2022/09/17 00:12:05;;;;;;;13.35;2.80;;;11.90;75.90;;;;;;5041585;28;20391;-74
2022/09/17 00:14:31;;;;;;;8.40;2.37;;;11.90;76.70;;;;;;5042496;28;20391;-74
2022/09/17 00:16:56;;;;;;;12.07;3.00;;;11.70;78.60;;;;;;5041609;28;20382;-74
2022/09/17 00:19:24;;;;;;;9.87;3.10;;;11.70;80.60;;;;;;5041097;28;20387;-73
2022/09/17 00:21:50;;;;;;;9.45;2.17;;;11.70;80.00;;;;;;5041452;28;20411;-74
2022/09/17 00:24:17;;;;;;;9.27;2.67;;;11.90;77.10;;;;;;5037103;28;20740;-72
2022/09/17 00:26:43;;;;;;;11.88;3.70;;;12.00;76.50;;;;;;5032092;28;20450;-74
2022/09/17 00:29:09;;;;;;;11.60;2.70;;;12.00;76.80;;;;;;5031436;28;20471;-72
2022/09/17 00:31:36;;;;;;;9.40;3.00;;;12.00;78.40;;;;;;5031096;28;20410;-73
2022/09/17 00:34:03;;;;;;;9.60;2.70;;;11.90;77.90;;;;;;5031650;28;20451;-72
2022/09/17 00:36:29;;;;;;;12.27;3.10;;;12.00;77.40;;;;;;5031999;28;20379;-73
2022/09/17 00:38:57;;;;;;;11.40;2.70;;;12.00;78.80;;;;;;5032175;28;20452;-72
2022/09/17 00:41:25;;;;;;;8.97;2.60;;;12.10;75.70;;;;;;5013779;28;20387;-72
2022/09/17 00:43:53;;;;;;;7.75;2.05;;;12.10;75.20;;;;;;5032174;28;20413;-72
2022/09/17 00:46:37;;;;;;;8.90;2.30;;;12.10;76.10;;;;;;5031481;28;20379;-73
2022/09/17 00:49:09;;;;;;;12.98;3.58;;;12.00;79.50;;;;;;5031279;28;20386;-73
2022/09/17 00:51:38;;;;;;;9.85;2.78;;;11.80;83.80;;;;;;5032500;28;20390;-72
2022/09/17 00:54:09;;;;;;;15.40;3.13;;;11.70;87.80;;;;;;5032861;28;20379;-73
2022/09/17 00:56:37;;;;;;;13.27;3.00;;;11.80;85.40;;;;;;5030839;28;20379;-72
2022/09/17 00:59:04;;;;;;;13.30;3.40;;;11.80;87.30;;;;;;5032660;28;20410;-73
2022/09/17 01:01:30;;;;;;;16.53;3.70;;;11.90;89.80;;;;;;5034129;28;20499;-73
2022/09/17 01:03:56;;;;;;;11.30;2.70;;;11.70;89.90;;;;;;5034747;28;20427;-73
2022/09/17 01:06:31;;;;;;;10.83;3.03;;;11.90;88.70;;;;;;5035170;28;20748;-73
2022/09/17 01:09:28;;;;;;;8.35;3.25;;;12.00;85.40;;;;;;5016838;28;20398;-73
2022/09/17 01:11:59;;;;;;;12.85;4.22;;;12.00;85.70;;;;;;5035365;28;20410;-73
2022/09/17 01:14:50;;;;;;;12.60;4.28;;;11.90;85.00;;;;;;5035336;28;20413;-73
2022/09/17 01:17:33;;;;;;;15.68;4.68;;;11.90;85.80;;;;;;5037681;28;20502;-72
2022/09/17 01:20:30;;;;;;;19.58;4.45;;;11.70;88.60;;;;;;5020957;28;20821;-72
2022/09/17 01:23:33;;;;;;;12.95;4.53;;;11.60;89.40;;;;;;5038847;28;20414;-73
2022/09/17 01:26:04;;;;;;;11.63;4.70;;;11.60;88.90;;;;;;5037754;28;20379;-73
2022/09/17 01:28:53;;;;;;;12.48;4.80;;;11.60;88.90;;;;;;5037403;28;20710;-73
2022/09/17 01:31:25;;;;;;;12.07;4.68;;;11.60;90.30;;;;;;4986848;28;20441;-73
2022/09/17 01:34:00;;;;;;;12.05;4.03;;;11.60;90.40;;;;;;5037895;28;20462;-74
2022/09/17 01:36:31;;;;;;;15.40;4.93;;;11.60;89.90;;;;;;5038355;28;20387;-73
2022/09/17 01:39:26;;;;;;;12.93;5.15;;;11.70;89.80;;;;;;5037935;28;20462;-73
2022/09/17 01:42:33;;;;;;;14.57;5.68;;;11.60;91.20;;;;;;5038132;28;20434;-72
2022/09/17 01:45:04;;;;;;;13.15;5.03;;;11.50;93.40;;;;;;5040179;28;20791;-74
2022/09/17 01:47:32;;;;;;;16.02;5.20;;;11.50;91.60;;;;;;5040450;28;20418;-72
2022/09/17 01:50:03;;;;;;;15.68;5.18;;;11.40;93.30;;;;;;5036558;28;20468;-73
2022/09/17 01:52:33;;;;;;;12.05;4.45;;;11.30;94.20;;;;;;5035309;28;20486;-73
2022/09/17 01:55:04;;;;;;;16.27;4.40;;;11.40;94.10;;;;;;5037841;28;20383;-73
2022/09/17 01:57:46;;;;;;;13.40;4.35;;;11.50;93.40;;;;;;5037680;28;21291;-73
2022/09/17 02:00:14;;;;;;;18.83;4.70;;;11.50;91.10;;;;;;5036639;28;20407;-73
2022/09/17 02:03:05;;;;;;;16.73;4.70;;;11.50;90.70;;;;;;5037159;28;20407;-73
2022/09/17 02:05:45;;;;;;;15.90;4.43;;;11.70;88.20;;;;;;5036794;28;20387;-73
2022/09/17 02:08:16;;;;;;;16.13;4.50;;;11.70;88.40;;;;;;5035768;28;20390;-73
2022/09/17 02:10:46;;;;;;;18.15;4.70;;;11.70;89.60;;;;;;5033095;28;20893;-73
2022/09/17 02:13:26;;;;;;;13.23;4.30;;;11.80;87.40;;;;;;5033061;28;20391;-73
2022/09/17 02:16:00;;;;;;;16.95;4.72;;;11.80;88.50;;;;;;5033014;28;20391;-73
2022/09/17 02:18:27;;;;;;;15.43;4.60;;;11.70;87.10;;;;;;5032998;28;20385;-73
2022/09/17 02:21:10;;;;;;;17.55;3.90;;;11.60;87.50;;;;;;5033015;28;20402;-74
2022/09/17 02:23:49;;;;;;;14.02;4.00;;;11.80;86.10;;;;;;5033043;28;20399;-73
2022/09/17 02:26:18;;;;;;;18.50;4.55;;;11.70;86.20;;;;;;5034116;28;20393;-73
2022/09/17 02:28:50;;;;;;;12.73;3.90;;;11.60;87.10;;;;;;5033702;28;20383;-73
2022/09/17 02:31:16;;;;;;;18.40;3.70;;;11.80;85.90;;;;;;5034871;28;20383;-73
2022/09/17 02:33:46;;;;;;;14.55;3.20;;;11.80;84.20;;;;;;5035048;28;20402;-73
2022/09/17 02:36:12;;;;;;;15.75;3.97;;;11.80;83.00;;;;;;5032737;28;20387;-73
2022/09/17 02:38:44;;;;;;;15.52;4.75;;;11.80;85.60;;;;;;5032857;28;20402;-73
2022/09/17 02:41:23;;;;;;;15.93;4.20;;;11.70;86.80;;;;;;5032240;28;20740;-72
2022/09/17 02:44:03;;;;;;;19.08;4.05;;;11.90;83.10;;;;;;5032507;28;20392;-73
2022/09/17 02:46:43;;;;;;;19.40;4.03;;;11.80;83.40;;;;;;5032775;28;20367;-74
2022/09/17 02:49:34;;;;;;;13.20;3.88;;;11.70;85.70;;;;;;5033134;28;20868;-72
2022/09/17 02:52:24;;;;;;;19.00;3.38;;;11.90;82.50;;;;;;5032119;28;20383;-73
2022/09/17 02:55:16;;;;;;;18.73;4.27;;;11.90;83.40;;;;;;5032829;28;20446;-73
2022/09/17 02:57:49;;;;;;;13.90;3.50;;;11.90;82.90;;;;;;5032914;28;20367;-73
2022/09/17 03:00:18;;;;;;;13.85;3.60;;;11.80;83.40;;;;;;5032179;28;20464;-73
2022/09/17 03:02:47;;;;;;;18.55;3.70;;;11.90;82.30;;;;;;5031921;28;20411;-73
2022/09/17 03:05:17;;;;;;;16.43;3.50;;;11.80;82.70;;;;;;5032061;28;20383;-73
2022/09/17 03:07:43;;;;;;;19.35;3.97;;;11.80;82.90;;;;;;5032370;28;20403;-74
2022/09/17 03:10:09;;;;;;;16.20;3.83;;;11.50;84.50;;;;;;5033695;28;20415;-73
2022/09/17 03:12:36;;;;;;;20.60;3.50;;;11.60;86.20;;;;;;5033116;28;20906;-72
2022/09/17 03:15:02;;;;;;;19.77;4.20;;;11.60;84.90;;;;;;5032224;28;20464;-73
2022/09/17 03:17:28;;;;;;;18.23;3.67;;;11.60;85.40;;;;;;5032587;28;20415;-73
2022/09/17 03:19:54;;;;;;;12.07;3.13;;;11.60;85.70;;;;;;5033314;28;20398;-73
2022/09/17 03:22:19;;;;;;;11.13;3.20;;;11.50;86.90;;;;;;5032889;28;20415;-73
2022/09/17 03:24:45;;;;;;;18.27;3.50;;;11.60;87.70;;;;;;5033202;28;20391;-73
2022/09/17 03:27:11;;;;;;;14.30;3.70;;;11.50;88.10;;;;;;5032927;28;20393;-73
2022/09/17 03:29:36;;;;;;;16.83;3.80;;;11.70;84.60;;;;;;5033620;28;20391;-73
2022/09/17 03:32:02;;;;;;;18.40;3.50;;;11.80;84.50;;;;;;5032348;28;20383;-73
2022/09/17 03:34:27;;;;;;;10.38;2.80;;;11.80;82.50;;;;;;5032268;28;20387;-72
2022/09/17 03:36:53;;;;;;;27.52;3.60;;;11.80;83.00;;;;;;5033365;28;20907;-72
2022/09/17 03:39:18;;;;;;;19.25;3.58;;;11.80;83.20;;;;;;5033724;28;20387;-72
2022/09/17 03:41:44;;;;;;;16.83;3.75;;;11.60;85.60;;;;;;5032923;28;20418;-72
2022/09/17 03:44:10;;;;;;;21.33;3.97;;;11.70;86.20;;;;;;5032107;28;20419;-72
2022/09/17 03:46:36;;;;;;;15.97;3.30;;;11.70;85.20;;;;;;5032672;28;20383;-72
2022/09/17 03:49:01;;;;;;;13.02;3.60;;;11.90;82.10;;;;;;5032499;28;20387;-72
2022/09/17 03:51:27;;;;;;;16.95;3.05;;;11.90;81.50;;;;;;5031640;28;20386;-72
2022/09/17 03:53:52;;;;;;;14.20;2.95;;;12.00;81.60;;;;;;5031771;28;20756;-72
2022/09/17 03:56:18;;;;;;;15.02;2.88;;;11.90;81.90;;;;;;5032692;28;20874;-73
2022/09/17 03:58:44;;;;;;;15.18;3.20;;;11.80;82.80;;;;;;5047055;23;20391;-70
2022/09/17 04:01:10;;;;;;;18.13;3.08;;;11.90;81.30;;;;;;5032573;28;20464;-71
2022/09/17 04:03:35;;;;;;;14.50;2.92;;;12.00;80.20;;;;;;5051148;28;20455;-72
2022/09/17 04:06:01;;;;;;;15.90;2.78;;;12.00;80.00;;;;;;5051199;28;20390;-72
2022/09/17 04:08:27;;;;;;;10.80;2.53;;;11.90;80.00;;;;;;5051390;28;20373;-72
2022/09/17 04:10:52;;;;;;;20.67;3.22;;;11.90;81.70;;;;;;5032045;28;20445;-72
2022/09/17 04:13:18;;;;;;;13.88;3.05;;;11.70;85.10;;;;;;5031301;28;20389;-70
2022/09/17 04:15:45;;;;;;;14.38;3.53;;;11.70;84.80;;;;;;5031613;28;20383;-69
2022/09/17 04:18:11;;;;;;;15.13;2.95;;;11.70;86.60;;;;;;5013672;28;20391;-72
2022/09/17 04:20:37;;;;;;;13.75;3.53;;;11.90;81.60;;;;;;5031133;28;20479;-71
2022/09/17 04:23:03;;;;;;;15.77;2.53;;;11.80;82.80;;;;;;5031051;28;20875;-71
2022/09/17 04:25:29;;;;;;;17.57;3.63;;;11.80;83.10;;;;;;5031254;28;20379;-72
2022/09/17 04:27:55;;;;;;;19.45;2.88;;;11.80;83.90;;;;;;5031485;28;20386;-72
2022/09/17 04:30:21;;;;;;;17.07;3.20;;;11.80;83.20;;;;;;5031597;28;20923;-72
2022/09/17 04:32:47;;;;;;;13.98;3.35;;;11.80;84.60;;;;;;5031333;28;20494;-72
2022/09/17 04:35:13;;;;;;;11.95;2.80;;;11.70;83.90;;;;;;5031772;28;20416;-72
2022/09/17 04:37:38;;;;;;;12.10;2.75;;;11.70;83.30;;;;;;5031373;28;20756;-71
2022/09/17 04:40:05;;;;;;;13.35;3.40;;;11.60;84.70;;;;;;5031103;28;20465;-70
2022/09/17 04:42:30;;;;;;;15.00;3.00;;;11.50;86.80;;;;;;5030754;28;20906;-71
2022/09/17 04:44:56;;;;;;;10.93;2.50;;;11.40;88.50;;;;;;5031464;28;20449;-71
2022/09/17 04:47:23;;;;;;;17.85;3.13;;;11.30;88.60;;;;;;5013414;28;20390;-72
2022/09/17 04:49:48;;;;;;;17.10;3.37;;;11.30;91.40;;;;;;5031518;28;20375;-71
2022/09/17 04:52:14;;;;;;;12.93;2.83;;;11.30;90.00;;;;;;5034024;28;20394;-71
2022/09/17 04:54:39;;;;;;;14.60;3.60;;;11.30;89.90;;;;;;5036049;28;20379;-72
2022/09/17 04:57:05;;;;;;;15.43;3.37;;;11.20;90.10;;;;;;5036565;28;20387;-72
2022/09/17 04:59:31;;;;;;;16.48;3.40;;;11.20;90.90;;;;;;5037960;28;20391;-72
2022/09/17 05:01:56;;;;;;;16.30;3.28;;;11.10;92.20;;;;;;5035518;28;20403;-73
2022/09/17 05:04:22;;;;;;;15.97;2.83;;;10.90;93.50;;;;;;5034993;28;20453;-71
2022/09/17 05:06:47;;;;;;;18.87;3.00;;;11.00;95.50;;;;;;5016987;28;20390;-71
2022/09/17 05:09:13;;;;;;;23.53;3.97;;;11.00;94.50;;;;;;5035040;28;20501;-71
2022/09/17 05:11:39;;;;;;;12.70;3.30;;;11.00;94.00;;;;;;5035353;28;20386;-71
2022/09/17 05:14:05;;;;;;;15.95;2.90;;;11.00;93.00;;;;;;5018139;28;20437;-71
2022/09/17 05:16:30;;;;;;;14.55;2.92;;;10.80;96.20;;;;;;5036221;28;20415;-71
2022/09/17 05:18:56;;;;;;;18.80;3.20;;;10.80;97.50;;;;;;5035251;28;20415;-71
2022/09/17 05:21:22;;;;;;;14.93;2.92;;;10.70;97.50;;;;;;5034808;28;20406;-70
2022/09/17 05:23:48;;;;;;;19.80;3.10;;;10.90;94.80;;;;;;5034890;28;20863;-72
2022/09/17 05:26:14;;;;;;;15.70;3.00;;;10.80;96.00;;;;;;5034809;28;20414;-72
2022/09/17 05:28:40;;;;;;;14.02;2.90;;;10.70;97.60;;;;;;5034424;28;20491;-72
2022/09/17 05:31:06;;;;;;;13.95;2.85;;;10.70;99.20;;;;;;5035414;28;20402;-71
2022/09/17 05:33:31;;;;;;;12.10;2.83;;;10.70;99.50;;;;;;5035239;28;20383;-72
2022/09/17 05:35:57;;;;;;;8.13;2.40;;;10.80;97.80;;;;;;5034156;28;20379;-73
2022/09/17 05:38:23;;;;;;;16.47;3.37;;;10.80;97.90;;;;;;5034171;28;20466;-72
2022/09/17 05:40:48;;;;;;;16.73;2.90;;;10.90;98.10;;;;;;5033970;28;20887;-70
2022/09/17 05:43:14;;;;;;;19.63;3.07;;;11.10;92.80;;;;;;5033973;28;20506;-72
2022/09/17 05:45:40;;;;;;;18.60;3.95;;;11.30;90.50;;;;;;5033549;28;20379;-71
2022/09/17 05:48:10;;;;;;;15.23;3.40;;;11.30;90.70;;;;;;5016517;28;20379;-72
2022/09/17 05:50:35;;;;;;;10.07;3.33;;;11.60;87.20;;;;;;5033799;28;20759;-71
2022/09/17 05:53:06;;;;;;;14.98;2.88;;;11.70;84.50;;;;;;5033734;28;20395;-71
2022/09/17 05:55:34;;;;;;;15.23;2.90;;;11.80;82.40;;;;;;5016882;28;20391;-72
2022/09/17 05:57:59;;;;;;;13.23;2.93;;;12.00;80.00;;;;;;5034284;28;20898;-72
2022/09/17 06:00:25;;;;;;;12.40;2.50;;;12.10;78.20;;;;;;5034107;28;20402;-72
2022/09/17 06:02:56;;;;;;;15.02;2.90;;;12.00;77.70;;;;;;5033747;28;20921;-72
2022/09/17 06:05:21;;;;;;;16.75;3.50;;;11.80;82.10;;;;;;5035198;28;20755;-72
2022/09/17 06:07:47;;;;;;;17.63;3.20;;;11.80;85.10;;;;;;5036362;28;20470;-72
2022/09/17 06:10:12;;;;;;;14.10;3.08;;;11.70;87.60;;;;;;5040686;28;20396;-70
2022/09/17 06:12:38;;;;;;;18.17;3.90;;;11.80;86.70;;;;;;5044728;28;20391;-72
2022/09/17 06:15:04;;;;;;;11.70;2.90;;;11.70;87.20;;;;;;5047632;28;20417;-72
2022/09/17 06:17:35;;;;;;;18.42;2.80;;;11.70;87.30;;;;;;5046624;28;20465;-71
2022/09/17 06:20:01;;;;;;;13.70;3.20;;;11.70;86.70;;;;;;5033658;28;20402;-72
2022/09/17 06:22:27;;;;;;;13.80;3.30;;;11.60;87.80;;;;;;5033362;28;20399;-71
2022/09/17 06:24:52;;;;;;;17.27;2.60;;;11.50;88.40;;;;;;5033775;28;20414;-72
2022/09/17 06:27:18;;;;;;;7.80;2.10;;;11.50;89.40;;;;;;5033355;28;20433;-72
2022/09/17 06:29:44;;;;;;;15.03;2.90;;;11.50;88.40;;;;;;5032762;28;20879;-72
2022/09/17 06:32:11;;;;;;;15.20;2.87;;;11.50;88.60;;;;;;5033312;28;20806;-70
2022/09/17 06:34:38;;;;;;;10.40;2.83;;;11.40;91.30;;;;;;5032785;28;20386;-72
2022/09/17 06:37:04;;;;;;;11.57;2.42;;;11.20;92.00;;;;;;5032716;28;20437;-70
2022/09/17 06:39:29;;;;;;;13.27;3.00;;;11.20;92.70;;;;;;5032744;28;20879;-70
2022/09/17 06:41:55;;;;;;;17.23;3.03;;;11.20;93.80;;;;;;5032684;28;20399;-72
2022/09/17 06:44:20;;;;;;;15.07;2.87;;;11.20;93.30;;;;;;5034216;28;20794;-72
2022/09/17 06:46:49;;;;;;;14.33;3.20;;;11.10;91.70;;;;;;5034675;28;20421;-73
2022/09/17 06:49:16;;;;;;;12.37;3.20;;;11.20;91.90;;;;;;5034277;28;20845;-72
2022/09/17 06:51:42;;;;;;;9.43;2.77;;;11.40;86.70;;;;;;5035998;28;20745;-72
2022/09/17 06:54:08;;;;;;;16.17;3.08;;;11.40;88.80;;;;;;5035972;28;20393;-70
2022/09/17 06:56:33;;;;;;;11.82;2.90;;;11.60;86.10;;;;;;5034259;28;20888;-71
2022/09/17 06:58:59;;;;;;;15.82;3.40;;;11.70;85.70;;;;;;5033215;28;20402;-72
2022/09/17 07:01:25;;;;;;;11.88;2.88;;;11.70;82.40;;;;;;5033026;28;20930;-72
2022/09/17 07:03:50;;;;;;;18.87;3.33;;;11.80;80.80;;;;;;5027991;28;20457;-71
2022/09/17 07:06:16;;;;;;;9.95;3.30;;;11.90;80.30;;;;;;5030628;28;20398;-71
2022/09/17 07:08:42;;;;;;;13.73;2.70;;;11.90;78.20;;;;;;5030629;28;20387;-72
2022/09/17 07:11:08;;;;;;;16.30;3.00;;;12.00;78.50;;;;;;5012861;28;20383;-71
2022/09/17 07:13:34;;;;;;;17.23;3.20;;;12.10;76.30;;;;;;5030016;28;20732;-72
2022/09/17 07:16:01;;;;;;;13.77;2.83;;;12.20;75.80;;;;;;5029656;28;20433;-73
2022/09/17 07:18:27;;;;;;;12.00;2.60;;;12.20;73.80;;;;;;5030786;28;20763;-72
2022/09/17 07:20:58;;;;;;;13.02;2.83;;;12.20;77.00;;;;;;5028898;28;20387;-71
2022/09/17 07:23:26;;;;;;;8.90;2.30;;;12.30;74.10;;;;;;5032856;28;20961;-71
2022/09/17 07:25:57;;;;;;;12.57;2.60;;;12.20;74.10;;;;;;5031888;28;20434;-71
2022/09/17 07:28:23;;;;;;;14.55;2.40;;;12.30;73.40;;;;;;5030199;28;20430;-72
2022/09/17 07:30:50;;;;;;;12.40;2.70;;;12.40;72.70;;;;;;5030999;28;20537;-71
2022/09/17 07:33:17;;;;;;;19.65;3.47;;;12.60;70.30;;;;;;5030219;28;20383;-72
2022/09/17 07:35:53;;;;;;;11.90;2.50;;;12.60;66.20;;;;;;5030067;28;20641;-71
2022/09/17 07:38:19;;;;;;;8.52;2.30;;;12.50;66.00;;;;;;5030196;28;20721;-72
2022/09/17 07:40:56;;;;;;;9.60;2.50;;;12.70;65.10;;;;;;5029605;28;20383;-71
2022/09/17 07:43:23;;;;;;;8.15;1.90;;;12.80;66.30;;;;;;5029886;28;20413;-72
2022/09/17 07:45:48;;;;;;;15.68;2.63;;;13.00;61.90;;;;;;5029487;28;20525;-71
2022/09/17 07:48:14;;;;;;;21.57;2.90;;;13.10;59.90;;;;;;5030305;28;20383;-71
2022/09/17 07:50:39;;;;;;;15.00;2.70;;;13.20;59.20;;;;;;5032338;28;20387;-72
2022/09/17 07:53:05;;;;;;;12.97;2.30;;;13.30;55.30;;;;;;5034100;28;20466;-74
2022/09/17 07:55:31;;;;;;;20.03;3.23;;;13.40;52.20;;;;;;5012801;28;20461;-73
2022/09/17 07:57:57;;;;;;;16.65;2.60;;;13.30;55.30;;;;;;5030942;28;20379;-71
2022/09/17 08:00:22;;;;;;;15.48;2.30;;;13.30;54.30;;;;;;5029884;28;20509;-72
2022/09/17 08:02:54;;;;;;;15.57;2.77;;;13.40;53.40;;;;;;5029968;28;20753;-71
2022/09/17 08:05:21;;;;;;;12.40;2.75;;;13.50;52.50;;;;;;5029656;28;21165;-73
2022/09/17 08:07:51;;;;;;;9.07;1.98;;;13.70;48.50;;;;;;5028472;28;20473;-72
2022/09/17 08:10:20;;;;;;;15.10;2.60;;;13.70;47.60;;;;;;5027928;28;20399;-72
2022/09/17 08:12:53;;;;;;;10.48;2.10;;;14.00;45.60;;;;;;5030463;28;20393;-72
2022/09/17 08:15:18;;;;;;;15.25;3.10;;;14.00;45.20;;;;;;5029955;28;20879;-72
2022/09/17 08:17:45;;;;;;;11.43;2.43;;;14.00;43.60;;;;;;5030907;28;20405;-72
2022/09/17 08:20:12;;;;;;;10.70;2.40;;;14.00;45.00;;;;;;5029259;28;20406;-72
2022/09/17 08:22:37;;;;;;;9.53;1.90;;;14.00;45.10;;;;;;5032772;28;20516;-72
2022/09/17 08:25:05;;;;;;;11.60;2.00;;;14.00;45.00;;;;;;5032799;28;20426;-74
2022/09/17 08:27:31;;;;;;;12.55;2.30;;;14.20;45.70;;;;;;5036394;28;20414;-73
2022/09/17 08:29:57;;;;;;;5.25;1.73;;;14.20;43.60;;;;;;5037345;28;20407;-73
2022/09/17 08:32:23;;;;;;;6.50;2.13;;;14.30;40.30;;;;;;5038229;28;20447;-73
2022/09/17 08:34:48;;;;;;;9.90;1.92;;;14.20;40.40;;;;;;5037101;28;20395;-73
2022/09/17 08:37:14;;;;;;;10.73;2.05;;;14.00;40.40;;;;;;5025471;28;20406;-72
2022/09/17 08:39:39;;;;;;;7.43;1.80;;;14.00;40.70;;;;;;5036735;28;20456;-73
2022/09/17 08:42:11;;;;;;;8.43;1.60;;;14.20;41.30;;;;;;5036212;28;20407;-72
2022/09/17 08:44:39;;;;;;;10.30;2.20;;;14.30;37.90;;;;;;5035423;28;20756;-71
2022/09/17 08:47:25;;;;;;;8.55;2.00;;;14.40;37.20;;;;;;5019549;28;20391;-71
2022/09/17 08:49:56;;;;;;;9.17;1.77;;;14.30;37.80;;;;;;5015056;28;20508;-73
2022/09/17 08:52:44;;;;;;;9.87;1.80;;;14.20;35.50;;;;;;5025750;28;20433;-71
2022/09/17 08:55:22;;;;;;;9.13;1.95;;;14.20;37.40;;;;;;5015058;28;20398;-72
2022/09/17 08:58:15;;;;;;;15.20;2.13;;;14.30;36.20;;;;;;5016067;28;20400;-72
2022/09/17 09:01:03;;;;;;;10.07;2.10;;;14.70;36.40;;;;;;5013647;28;20892;-72
2022/09/17 09:04:03;;;;;;;10.20;1.70;;;14.90;34.10;;;;;;5015865;28;20485;-74
2022/09/17 09:06:52;;;;;;;7.30;1.95;;;15.20;32.20;;;;;;5016729;28;20385;-72
2022/09/17 09:09:22;;;;;;;10.18;1.85;;;15.40;31.00;;;;;;5015670;28;20392;-73
2022/09/17 09:11:52;;;;;;;7.45;1.92;;;15.20;31.50;;;;;;5013317;28;20450;-72
2022/09/17 09:14:26;;;;;;;11.40;1.60;;;15.20;31.20;;;;;;5013354;28;20439;-72
2022/09/17 09:16:52;;;;;;;9.55;2.30;;;15.20;31.70;;;;;;5013118;28;20431;-73
2022/09/17 09:19:22;;;;;;;10.30;2.43;;;15.10;31.70;;;;;;5015129;28;20395;-72
2022/09/17 09:22:27;;;;;;;8.52;1.70;;;15.40;31.50;;;;;;5027975;28;20424;-74
2022/09/17 09:25:25;;;;;;;12.10;2.05;;;15.70;29.80;;;;;;5027816;28;20403;-72
2022/09/17 09:28:21;;;;;;;11.90;2.35;;;15.90;30.00;;;;;;5034802;28;20398;-73
2022/09/17 09:31:13;;;;;;;10.43;1.80;;;16.00;26.90;;;;;;5034631;28;20463;-73
2022/09/17 09:33:41;;;;;;;9.32;2.30;;;15.60;29.10;;;;;;5034644;28;20410;-73
2022/09/17 09:36:13;;;;;;;8.38;2.03;;;15.60;29.10;;;;;;5034594;28;20387;-73
2022/09/17 09:38:55;;;;;;;8.67;1.63;;;15.70;27.00;;;;;;5033167;28;20931;-73
2022/09/17 09:41:39;;;;;;;12.75;1.90;;;15.80;27.00;;;;;;5033843;28;20410;-73
2022/09/17 09:44:09;;;;;;;9.70;1.85;;;15.90;26.50;;;;;;5033998;28;20391;-71
2022/09/17 09:47:03;;;;;;;8.85;1.40;;;16.00;26.90;;;;;;5033464;28;20406;-73
2022/09/17 09:49:38;;;;;;;5.10;1.88;;;15.70;27.60;;;;;;5017630;28;20401;-72
2022/09/17 09:52:12;;;;;;;12.40;1.95;;;15.90;27.50;;;;;;5026877;28;20492;-72
2022/09/17 09:55:08;;;;;;;8.30;1.70;;;15.90;25.70;;;;;;5033705;28;20407;-73
2022/09/17 09:57:46;;;;;;;8.65;2.10;;;15.70;27.90;;;;;;5040529;28;20403;-71
2022/09/17 10:00:34;;;;;;;7.65;2.00;;;16.00;25.90;;;;;;5074261;22;20434;-75
2022/09/17 10:03:18;;;;;;;6.28;1.50;;;16.30;24.70;;;;;;5074695;28;20478;-73
2022/09/17 10:06:01;;;;;;;7.63;1.67;;;16.20;25.00;;;;;;5091227;28;20402;-74
2022/09/17 10:08:29;;;;;;;9.77;1.70;;;16.10;25.60;;;;;;5088598;28;20591;-73
2022/09/17 10:11:11;;;;;;;6.93;1.80;;;15.70;26.30;;;;;;5089617;28;20433;-73
2022/09/17 10:13:38;;;;;;;6.85;2.10;;;15.30;32.60;;;;;;5091329;28;20490;-74
2022/09/17 10:16:15;;;;;;;9.52;1.55;;;15.20;35.00;;;;;;5078896;28;20407;-73
2022/09/17 10:18:41;;;;;;;10.05;1.70;;;15.00;31.70;;;;;;5051347;28;20378;-74
2022/09/17 10:21:22;;;;;;;5.13;1.70;;;15.00;34.10;;;;;;5075606;28;20404;-73
2022/09/17 10:23:48;;;;;;;12.55;2.70;;;15.30;31.50;;;;;;5073938;28;20408;-72
2022/09/17 10:26:29;;;;;;;7.32;1.75;;;15.70;30.10;;;;;;5070109;28;20515;-73
2022/09/17 10:28:58;;;;;;;5.60;1.30;;;16.00;26.00;;;;;;5070142;28;20398;-72
2022/09/17 10:31:23;;;;;;;10.10;1.40;;;15.50;27.50;;;;;;5069921;28;20478;-73
2022/09/17 10:33:52;;;;;;;8.37;2.07;;;14.90;33.10;;;;;;5069115;28;20466;-73
2022/09/17 10:36:39;;;;;;;8.52;1.85;;;14.70;35.80;;;;;;5070469;28;20387;-73
2022/09/17 10:39:47;;;;;;;6.80;1.40;;;15.00;32.90;;;;;;5070783;28;20387;-73
2022/09/17 10:42:15;;;;;;;4.93;1.60;;;15.20;30.00;;;;;;5070443;28;20443;-73
2022/09/17 10:44:55;;;;;;;4.05;1.48;;;15.60;29.90;;;;;;5070054;28;21034;-72
2022/09/17 10:47:43;;;;;;;8.88;1.70;;;16.10;27.10;;;;;;5069406;28;20744;-72
2022/09/17 10:50:16;;;;;;;7.88;1.50;;;16.40;25.80;;;;;;5063084;28;20404;-71
2022/09/17 10:52:52;;;;;;;3.23;1.20;;;16.10;22.50;;;;;;5080583;28;20621;-74
2022/09/17 10:55:27;;;;;;;9.68;1.90;;;16.10;24.00;;;;;;5087583;28;20677;-72
2022/09/17 10:58:07;;;;;;;6.50;1.40;;;16.30;23.70;;;;;;5091245;28;20385;-72
2022/09/17 11:00:57;;;;;;;6.50;1.42;;;16.40;24.00;;;;;;5091791;28;20889;-72
2022/09/17 11:03:23;;;;;;;6.20;1.90;;;16.30;25.60;;;;;;5092014;28;20454;-72
2022/09/17 11:05:48;;;;;;;3.90;1.20;;;16.10;26.60;;;;;;5092503;28;20378;-72
2022/09/17 11:08:34;;;;;;;6.50;1.70;;;15.80;27.00;;;;;;5091825;28;20660;-72
2022/09/17 11:11:39;;;;;;;6.38;1.30;;;16.00;26.30;;;;;;5092713;28;20797;-71
2022/09/17 11:14:11;;;;;;;6.00;1.50;;;16.50;23.70;;;;;;5092077;28;20885;-72
2022/09/17 11:17:08;;;;;;;5.00;1.48;;;16.70;22.80;;;;;;5092049;28;20382;-73
2022/09/17 11:19:54;;;;;;;6.97;1.60;;;16.70;22.60;;;;;;5092198;28;20807;-73
2022/09/17 11:22:55;;;;;;;7.13;1.30;;;16.40;24.20;;;;;;5092361;28;20406;-74
2022/09/17 11:25:45;;;;;;;3.72;1.17;;;16.50;23.20;;;;;;5074741;28;20399;-72
2022/09/17 11:28:29;;;;;;;4.63;1.30;;;16.20;23.20;;;;;;5080502;28;20428;-73
2022/09/17 11:31:16;;;;;;;4.68;1.60;;;16.10;22.70;;;;;;5082728;28;20405;-73
2022/09/17 11:34:00;;;;;;;2.92;1.10;;;15.90;27.20;;;;;;5089835;28;20381;-73
2022/09/17 11:36:40;;;;;;;5.97;1.20;;;15.30;28.30;;;;;;5089713;28;20386;-72
2022/09/17 11:39:16;;;;;;;7.90;1.70;;;15.10;28.30;;;;;;5088204;28;20883;-73
2022/09/17 11:41:45;;;;;;;9.70;1.00;;;15.30;29.10;;;;;;5082252;28;20819;-73
2022/09/17 11:44:20;;;;;;;5.93;1.30;;;15.40;27.50;;;;;;5079958;28;20422;-72
2022/09/17 11:47:07;;;;;;;3.60;1.00;;;15.40;26.40;;;;;;5068898;28;20454;-72
2022/09/17 11:49:49;;;;;;;2.37;1.00;;;15.80;25.70;;;;;;5078843;28;20465;-72
2022/09/17 11:52:23;;;;;;;1.73;0.70;;;16.30;24.10;;;;;;5049035;28;20475;-73
2022/09/17 11:54:58;;;;;;;2.30;0.70;;;16.20;23.70;;;;;;5049006;28;20400;-72
2022/09/17 11:57:31;;;;;;;3.97;0.80;;;16.10;23.60;;;;;;5063709;28;20402;-71
2022/09/17 12:00:28;;;;;;;3.30;0.90;;;15.70;24.50;;;;;;5048657;28;20408;-73
2022/09/17 12:03:22;;;;;;;2.83;1.05;;;15.60;24.70;;;;;;5050958;28;20522;-73
2022/09/17 12:05:54;;;;;;;3.05;1.00;;;15.80;26.30;;;;;;5068576;28;20395;-73
2022/09/17 12:08:29;;;;;;;2.45;1.10;;;16.00;26.00;;;;;;5068755;28;20431;-73
2022/09/17 12:11:09;;;;;;;2.00;0.85;;;15.90;25.70;;;;;;5068659;28;20383;-73
2022/09/17 12:13:57;;;;;;;4.50;0.70;;;15.80;26.20;;;;;;5069014;28;20379;-73
2022/09/17 12:16:37;;;;;;;5.80;0.90;;;15.90;26.90;;;;;;5068680;28;20398;-74
2022/09/17 12:19:04;;;;;;;1.77;0.82;;;16.20;25.50;;;;;;5068635;28;20818;-74
2022/09/17 12:21:34;;;;;;;3.47;0.80;;;16.10;25.70;;;;;;5068777;28;20407;-74
2022/09/17 12:24:16;;;;;;;1.98;0.90;;;15.90;26.90;;;;;;5068859;28;20399;-72
2022/09/17 12:27:16;;;;;;;5.72;1.80;;;15.40;33.40;;;;;;5075308;28;20386;-72
2022/09/17 12:30:16;;;;;;;4.43;1.20;;;14.90;36.30;;;;;;5082125;28;20400;-74
2022/09/17 12:33:15;;;;;;;14.55;2.35;;;14.10;47.50;;;;;;5068856;28;20391;-73
2022/09/17 12:35:53;;;;;;;13.40;2.13;;;12.20;99.90;;;;;;5068402;28;20885;-73
2022/09/17 12:38:30;;;;;;;4.97;1.30;;;11.50;99.90;;;;;;5068527;28;20392;-74
2022/09/17 12:41:17;;;;;;;8.23;1.60;;;11.30;99.90;;;;;;5067625;28;20387;-73
2022/09/17 12:44:06;;;;;;;7.53;2.13;;;11.10;99.90;;;;;;5083529;28;20511;-73
2022/09/17 12:46:54;;;;;;;6.97;1.85;;;11.30;99.90;;;;;;5088284;28;20775;-73
2022/09/17 12:50:07;;;;;;;8.05;1.90;;;11.20;99.90;;;;;;5080429;28;20489;-73
2022/09/17 12:53:01;;;;;;;5.05;2.00;;;11.00;99.90;;;;;;5052866;28;20399;-73
2022/09/17 12:55:54;;;;;;;6.95;2.30;;;11.20;99.90;;;;;;5066871;28;20449;-73
2022/09/17 12:58:42;;;;;;;6.18;2.50;;;11.60;99.90;;;;;;5070105;28;20437;-73
2022/09/17 13:01:26;;;;;;;3.50;1.50;;;11.60;99.90;;;;;;5069440;28;20861;-73
2022/09/17 13:04:10;;;;;;;3.17;1.10;;;11.80;99.90;;;;;;5069831;28;20416;-73
2022/09/17 13:07:07;;;;;;;202.80;117.55;;;12.10;99.90;;;;;;5069756;28;20387;-73
2022/09/17 13:09:39;;;;;;;258.25;149.50;;;12.40;99.90;;;;;;5069917;28;20372;-73
2022/09/17 13:12:16;;;;;;;4.53;1.17;;;12.60;99.90;;;;;;5070254;28;20379;-73